sensor_id;sensor_type;location;lat;lon;timestamp;temperature;humidity
29575;DHT22;16507;51.046;6.406;2023-07-02T00:02:25;15.90;99.90
29575;DHT22;16507;51.046;6.406;2023-07-02T00:04:51;15.90;99.90
29575;DHT22;16507;51.046;6.406;2023-07-02T00:07:19;15.90;99.90
29575;DHT22;16507;51.046;6.406;2023-07-02T00:09:45;15.80;99.90
29575;DHT22;16507;51.046;6.406;2023-07-02T00:12:10;15.80;99.90
29575;DHT22;16507;51.046;6.406;2023-07-02T00:14:36;15.70;99.90
29575;DHT22;16507;51.046;6.406;2023-07-02T00:17:02;15.70;99.90
29575;DHT22;16507;51.046;6.406;2023-07-02T00:19:27;15.70;99.90
29575;DHT22;16507;51.046;6.406;2023-07-02T00:21:53;15.70;99.90
29575;DHT22;16507;51.046;6.406;2023-07-02T00:24:19;15.70;99.90
29575;DHT22;16507;51.046;6.406;2023-07-02T00:26:44;15.60;99.90
29575;DHT22;16507;51.046;6.406;2023-07-02T00:29:10;15.60;99.90
29575;DHT22;16507;51.046;6.406;2023-07-02T00:31:36;15.50;99.90
29575;DHT22;16507;51.046;6.406;2023-07-02T00:34:03;15.50;99.90
29575;DHT22;16507;51.046;6.406;2023-07-02T00:36:29;15.50;99.90
29575;DHT22;16507;51.046;6.406;2023-07-02T00:38:55;15.40;99.90
29575;DHT22;16507;51.046;6.406;2023-07-02T00:41:22;15.40;99.90
29575;DHT22;16507;51.046;6.406;2023-07-02T00:43:47;15.40;99.90
29575;DHT22;16507;51.046;6.406;2023-07-02T00:46:15;15.40;99.90
29575;DHT22;16507;51.046;6.406;2023-07-02T00:48:48;15.30;99.90
29575;DHT22;16507;51.046;6.406;2023-07-02T00:51:21;15.30;99.90
29575;DHT22;16507;51.046;6.406;2023-07-02T00:53:49;15.30;99.90
29575;DHT22;16507;51.046;6.406;2023-07-02T00:56:15;15.30;99.90
29575;DHT22;16507;51.046;6.406;2023-07-02T00:58:43;15.30;99.90
29575;DHT22;16507;51.046;6.406;2023-07-02T01:01:18;15.30;99.90
29575;DHT22;16507;51.046;6.406;2023-07-02T01:06:32;15.20;99.90
29575;DHT22;16507;51.046;6.406;2023-07-02T01:09:05;15.20;99.90
29575;DHT22;16507;51.046;6.406;2023-07-02T01:14:05;15.20;99.90
29575;DHT22;16507;51.046;6.406;2023-07-02T01:16:34;15.10;99.90
29575;DHT22;16507;51.046;6.406;2023-07-02T01:19:04;15.10;99.90
29575;DHT22;16507;51.046;6.406;2023-07-02T01:21:31;15.10;99.90
29575;DHT22;16507;51.046;6.406;2023-07-02T01:23:58;15.00;99.90
29575;DHT22;16507;51.046;6.406;2023-07-02T01:26:31;15.00;99.90
29575;DHT22;16507;51.046;6.406;2023-07-02T01:29:20;14.90;99.90
29575;DHT22;16507;51.046;6.406;2023-07-02T01:31:47;14.90;99.90
29575;DHT22;16507;51.046;6.406;2023-07-02T01:34:13;14.90;99.90
29575;DHT22;16507;51.046;6.406;2023-07-02T01:36:39;14.90;99.90
29575;DHT22;16507;51.046;6.406;2023-07-02T01:39:05;14.90;99.90
29575;DHT22;16507;51.046;6.406;2023-07-02T01:41:36;14.90;99.90
29575;DHT22;16507;51.046;6.406;2023-07-02T01:44:02;15.00;99.90
29575;DHT22;16507;51.046;6.406;2023-07-02T01:46:29;15.00;99.90
29575;DHT22;16507;51.046;6.406;2023-07-02T01:48:57;15.10;99.90
29575;DHT22;16507;51.046;6.406;2023-07-02T01:51:23;15.00;99.90
29575;DHT22;16507;51.046;6.406;2023-07-02T01:53:48;15.00;99.90
29575;DHT22;16507;51.046;6.406;2023-07-02T01:56:14;15.00;99.90
29575;DHT22;16507;51.046;6.406;2023-07-02T01:58:40;15.00;99.90
29575;DHT22;16507;51.046;6.406;2023-07-02T02:01:05;14.90;99.90
29575;DHT22;16507;51.046;6.406;2023-07-02T02:03:31;14.90;99.90
29575;DHT22;16507;51.046;6.406;2023-07-02T02:05:56;14.80;99.90
29575;DHT22;16507;51.046;6.406;2023-07-02T02:08:22;14.80;99.90
29575;DHT22;16507;51.046;6.406;2023-07-02T02:10:47;14.70;99.90
29575;DHT22;16507;51.046;6.406;2023-07-02T02:13:13;14.70;99.90
29575;DHT22;16507;51.046;6.406;2023-07-02T02:15:39;14.60;99.90
29575;DHT22;16507;51.046;6.406;2023-07-02T02:18:06;14.60;99.90
29575;DHT22;16507;51.046;6.406;2023-07-02T02:20:32;14.60;99.90
29575;DHT22;16507;51.046;6.406;2023-07-02T02:22:58;14.60;99.90
29575;DHT22;16507;51.046;6.406;2023-07-02T02:25:23;14.60;99.90
29575;DHT22;16507;51.046;6.406;2023-07-02T02:27:49;14.50;99.90
29575;DHT22;16507;51.046;6.406;2023-07-02T02:30:15;14.60;99.90
29575;DHT22;16507;51.046;6.406;2023-07-02T02:32:40;14.60;99.90
29575;DHT22;16507;51.046;6.406;2023-07-02T02:35:08;14.60;99.90
29575;DHT22;16507;51.046;6.406;2023-07-02T02:37:37;14.70;99.90
29575;DHT22;16507;51.046;6.406;2023-07-02T02:40:04;14.60;99.90
29575;DHT22;16507;51.046;6.406;2023-07-02T02:42:31;14.60;99.90
29575;DHT22;16507;51.046;6.406;2023-07-02T02:44:56;14.60;99.90
29575;DHT22;16507;51.046;6.406;2023-07-02T02:47:22;14.60;99.90
29575;DHT22;16507;51.046;6.406;2023-07-02T02:49:48;14.70;99.90
29575;DHT22;16507;51.046;6.406;2023-07-02T02:52:13;14.70;99.90
29575;DHT22;16507;51.046;6.406;2023-07-02T02:54:40;14.80;99.90
29575;DHT22;16507;51.046;6.406;2023-07-02T02:57:05;14.90;99.90
29575;DHT22;16507;51.046;6.406;2023-07-02T02:59:31;14.90;99.90
29575;DHT22;16507;51.046;6.406;2023-07-02T03:01:56;15.00;99.90
29575;DHT22;16507;51.046;6.406;2023-07-02T03:04:22;15.00;99.90
29575;DHT22;16507;51.046;6.406;2023-07-02T03:06:49;15.00;99.90
29575;DHT22;16507;51.046;6.406;2023-07-02T03:09:15;15.10;99.90
29575;DHT22;16507;51.046;6.406;2023-07-02T03:11:40;15.10;99.90
29575;DHT22;16507;51.046;6.406;2023-07-02T03:14:06;15.10;99.90
29575;DHT22;16507;51.046;6.406;2023-07-02T03:16:31;15.10;99.90
29575;DHT22;16507;51.046;6.406;2023-07-02T03:18:58;15.20;99.90
29575;DHT22;16507;51.046;6.406;2023-07-02T03:21:24;15.10;99.90
29575;DHT22;16507;51.046;6.406;2023-07-02T03:23:50;15.20;99.90
29575;DHT22;16507;51.046;6.406;2023-07-02T03:26:15;15.20;99.90
29575;DHT22;16507;51.046;6.406;2023-07-02T03:28:42;15.20;99.90
29575;DHT22;16507;51.046;6.406;2023-07-02T03:31:07;15.20;99.90
29575;DHT22;16507;51.046;6.406;2023-07-02T03:33:33;15.20;99.90
29575;DHT22;16507;51.046;6.406;2023-07-02T03:35:59;15.30;99.90
29575;DHT22;16507;51.046;6.406;2023-07-02T03:38:24;15.30;99.90
29575;DHT22;16507;51.046;6.406;2023-07-02T03:40:50;15.30;99.90
29575;DHT22;16507;51.046;6.406;2023-07-02T03:43:15;15.30;99.90
29575;DHT22;16507;51.046;6.406;2023-07-02T03:45:41;15.20;99.90
29575;DHT22;16507;51.046;6.406;2023-07-02T03:48:07;15.20;99.90
29575;DHT22;16507;51.046;6.406;2023-07-02T03:50:32;15.20;99.90
29575;DHT22;16507;51.046;6.406;2023-07-02T03:52:58;15.20;99.90
29575;DHT22;16507;51.046;6.406;2023-07-02T03:55:24;15.20;99.90
29575;DHT22;16507;51.046;6.406;2023-07-02T03:57:50;15.20;99.90
29575;DHT22;16507;51.046;6.406;2023-07-02T04:00:16;15.10;99.90
29575;DHT22;16507;51.046;6.406;2023-07-02T04:02:42;15.20;99.90
29575;DHT22;16507;51.046;6.406;2023-07-02T04:05:07;15.10;99.90
29575;DHT22;16507;51.046;6.406;2023-07-02T04:07:33;15.10;99.90
29575;DHT22;16507;51.046;6.406;2023-07-02T04:09:59;15.20;99.90
29575;DHT22;16507;51.046;6.406;2023-07-02T04:12:26;15.20;99.90
29575;DHT22;16507;51.046;6.406;2023-07-02T04:14:51;15.20;99.90
29575;DHT22;16507;51.046;6.406;2023-07-02T04:17:17;15.20;99.90
29575;DHT22;16507;51.046;6.406;2023-07-02T04:19:43;15.20;99.90
29575;DHT22;16507;51.046;6.406;2023-07-02T04:22:08;15.20;99.90
29575;DHT22;16507;51.046;6.406;2023-07-02T04:24:34;15.20;99.90
29575;DHT22;16507;51.046;6.406;2023-07-02T04:26:59;15.30;99.90
29575;DHT22;16507;51.046;6.406;2023-07-02T04:29:25;15.30;99.90
29575;DHT22;16507;51.046;6.406;2023-07-02T04:31:51;15.30;99.90
29575;DHT22;16507;51.046;6.406;2023-07-02T04:34:16;15.30;99.90
29575;DHT22;16507;51.046;6.406;2023-07-02T04:36:43;15.30;99.90
29575;DHT22;16507;51.046;6.406;2023-07-02T04:39:09;15.30;99.90
29575;DHT22;16507;51.046;6.406;2023-07-02T04:41:36;15.40;99.90
29575;DHT22;16507;51.046;6.406;2023-07-02T04:44:01;15.40;99.90
29575;DHT22;16507;51.046;6.406;2023-07-02T04:46:27;15.40;99.90
29575;DHT22;16507;51.046;6.406;2023-07-02T04:48:55;15.50;99.90
29575;DHT22;16507;51.046;6.406;2023-07-02T04:51:21;15.60;99.90
29575;DHT22;16507;51.046;6.406;2023-07-02T04:53:47;15.80;99.90
29575;DHT22;16507;51.046;6.406;2023-07-02T04:56:12;15.90;99.90
29575;DHT22;16507;51.046;6.406;2023-07-02T04:58:38;15.90;99.90
29575;DHT22;16507;51.046;6.406;2023-07-02T05:01:04;15.90;99.90
29575;DHT22;16507;51.046;6.406;2023-07-02T05:03:30;15.80;99.90
29575;DHT22;16507;51.046;6.406;2023-07-02T05:05:55;15.80;99.90
29575;DHT22;16507;51.046;6.406;2023-07-02T05:08:21;15.80;99.90
29575;DHT22;16507;51.046;6.406;2023-07-02T05:10:47;15.80;99.90
29575;DHT22;16507;51.046;6.406;2023-07-02T05:13:12;15.80;99.90
29575;DHT22;16507;51.046;6.406;2023-07-02T05:15:39;15.80;99.90
29575;DHT22;16507;51.046;6.406;2023-07-02T05:18:04;15.90;99.90
29575;DHT22;16507;51.046;6.406;2023-07-02T05:20:32;16.00;99.90
29575;DHT22;16507;51.046;6.406;2023-07-02T05:22:57;16.10;99.90
29575;DHT22;16507;51.046;6.406;2023-07-02T05:25:23;16.50;99.90
29575;DHT22;16507;51.046;6.406;2023-07-02T05:27:48;16.90;99.90
29575;DHT22;16507;51.046;6.406;2023-07-02T05:30:14;16.70;99.90
29575;DHT22;16507;51.046;6.406;2023-07-02T05:32:39;16.50;99.90
29575;DHT22;16507;51.046;6.406;2023-07-02T05:35:05;16.40;99.90
29575;DHT22;16507;51.046;6.406;2023-07-02T05:37:31;16.40;99.90
29575;DHT22;16507;51.046;6.406;2023-07-02T05:39:57;16.60;99.90
29575;DHT22;16507;51.046;6.406;2023-07-02T05:42:22;16.60;99.90
29575;DHT22;16507;51.046;6.406;2023-07-02T05:44:48;16.60;99.90
29575;DHT22;16507;51.046;6.406;2023-07-02T05:47:13;16.80;99.90
29575;DHT22;16507;51.046;6.406;2023-07-02T05:49:41;16.60;99.90
29575;DHT22;16507;51.046;6.406;2023-07-02T05:52:08;16.50;99.90
29575;DHT22;16507;51.046;6.406;2023-07-02T05:54:33;16.50;99.90
29575;DHT22;16507;51.046;6.406;2023-07-02T05:56:59;16.70;99.90
29575;DHT22;16507;51.046;6.406;2023-07-02T05:59:24;16.90;99.90
29575;DHT22;16507;51.046;6.406;2023-07-02T06:01:50;17.20;99.90
29575;DHT22;16507;51.046;6.406;2023-07-02T06:04:15;17.40;99.90
29575;DHT22;16507;51.046;6.406;2023-07-02T06:06:42;17.80;99.90
29575;DHT22;16507;51.046;6.406;2023-07-02T06:09:10;17.60;99.90
29575;DHT22;16507;51.046;6.406;2023-07-02T06:11:36;17.60;99.90
29575;DHT22;16507;51.046;6.406;2023-07-02T06:14:03;17.60;99.90
29575;DHT22;16507;51.046;6.406;2023-07-02T06:16:29;17.30;99.90
29575;DHT22;16507;51.046;6.406;2023-07-02T06:18:54;17.30;99.90
29575;DHT22;16507;51.046;6.406;2023-07-02T06:21:20;17.40;99.90
29575;DHT22;16507;51.046;6.406;2023-07-02T06:23:46;17.60;99.90
29575;DHT22;16507;51.046;6.406;2023-07-02T06:26:11;17.70;99.90
29575;DHT22;16507;51.046;6.406;2023-07-02T06:28:38;17.70;99.90
29575;DHT22;16507;51.046;6.406;2023-07-02T06:31:04;17.90;99.90
29575;DHT22;16507;51.046;6.406;2023-07-02T06:33:30;17.80;99.90
29575;DHT22;16507;51.046;6.406;2023-07-02T06:35:55;17.90;99.90
29575;DHT22;16507;51.046;6.406;2023-07-02T06:38:21;18.10;99.90
29575;DHT22;16507;51.046;6.406;2023-07-02T06:40:46;18.20;99.90
29575;DHT22;16507;51.046;6.406;2023-07-02T06:43:12;18.30;99.90
29575;DHT22;16507;51.046;6.406;2023-07-02T06:45:37;18.20;99.90
29575;DHT22;16507;51.046;6.406;2023-07-02T06:48:03;18.30;99.90
29575;DHT22;16507;51.046;6.406;2023-07-02T06:50:29;18.40;99.90
29575;DHT22;16507;51.046;6.406;2023-07-02T06:52:54;18.50;99.90
29575;DHT22;16507;51.046;6.406;2023-07-02T06:55:20;18.40;99.90
29575;DHT22;16507;51.046;6.406;2023-07-02T06:57:46;18.40;99.90
29575;DHT22;16507;51.046;6.406;2023-07-02T07:00:14;18.50;99.90
29575;DHT22;16507;51.046;6.406;2023-07-02T07:02:40;18.60;99.90
29575;DHT22;16507;51.046;6.406;2023-07-02T07:05:06;18.70;99.90
29575;DHT22;16507;51.046;6.406;2023-07-02T07:07:32;19.00;99.90
29575;DHT22;16507;51.046;6.406;2023-07-02T07:09:58;19.00;99.90
29575;DHT22;16507;51.046;6.406;2023-07-02T07:12:23;19.20;99.90
29575;DHT22;16507;51.046;6.406;2023-07-02T07:14:49;19.40;99.90
29575;DHT22;16507;51.046;6.406;2023-07-02T07:17:14;19.30;99.90
29575;DHT22;16507;51.046;6.406;2023-07-02T07:19:40;19.10;99.90
29575;DHT22;16507;51.046;6.406;2023-07-02T07:22:06;19.20;99.90
29575;DHT22;16507;51.046;6.406;2023-07-02T07:24:31;19.60;99.90
29575;DHT22;16507;51.046;6.406;2023-07-02T07:26:57;19.40;99.90
29575;DHT22;16507;51.046;6.406;2023-07-02T07:29:22;19.00;99.90
29575;DHT22;16507;51.046;6.406;2023-07-02T07:31:48;19.10;99.90
29575;DHT22;16507;51.046;6.406;2023-07-02T07:34:13;19.40;99.90
29575;DHT22;16507;51.046;6.406;2023-07-02T07:36:39;19.30;99.90
29575;DHT22;16507;51.046;6.406;2023-07-02T07:39:05;19.30;99.90
29575;DHT22;16507;51.046;6.406;2023-07-02T07:41:30;19.20;99.90
29575;DHT22;16507;51.046;6.406;2023-07-02T07:43:56;19.20;99.90
29575;DHT22;16507;51.046;6.406;2023-07-02T07:46:25;19.00;99.90
29575;DHT22;16507;51.046;6.406;2023-07-02T07:48:51;18.90;99.90
29575;DHT22;16507;51.046;6.406;2023-07-02T07:51:16;19.20;99.90
29575;DHT22;16507;51.046;6.406;2023-07-02T07:53:42;19.20;99.90
29575;DHT22;16507;51.046;6.406;2023-07-02T07:56:08;19.30;99.90
29575;DHT22;16507;51.046;6.406;2023-07-02T07:58:33;19.40;99.90
29575;DHT22;16507;51.046;6.406;2023-07-02T08:00:59;19.30;99.90
29575;DHT22;16507;51.046;6.406;2023-07-02T08:03:25;19.20;99.90
29575;DHT22;16507;51.046;6.406;2023-07-02T08:05:50;19.10;99.90
29575;DHT22;16507;51.046;6.406;2023-07-02T08:08:16;19.30;99.90
29575;DHT22;16507;51.046;6.406;2023-07-02T08:10:41;19.30;99.90
29575;DHT22;16507;51.046;6.406;2023-07-02T08:13:08;19.40;99.90
29575;DHT22;16507;51.046;6.406;2023-07-02T08:15:33;19.40;99.90
29575;DHT22;16507;51.046;6.406;2023-07-02T08:17:59;19.50;99.90
29575;DHT22;16507;51.046;6.406;2023-07-02T08:20:25;19.50;99.90
29575;DHT22;16507;51.046;6.406;2023-07-02T08:22:51;19.70;99.90
29575;DHT22;16507;51.046;6.406;2023-07-02T08:25:17;20.10;99.90
29575;DHT22;16507;51.046;6.406;2023-07-02T08:27:43;19.90;99.90
29575;DHT22;16507;51.046;6.406;2023-07-02T08:30:10;19.40;99.90
29575;DHT22;16507;51.046;6.406;2023-07-02T08:32:36;19.90;99.90
29575;DHT22;16507;51.046;6.406;2023-07-02T08:35:02;20.40;99.90
29575;DHT22;16507;51.046;6.406;2023-07-02T08:37:27;19.90;99.90
29575;DHT22;16507;51.046;6.406;2023-07-02T08:39:53;19.80;99.90
29575;DHT22;16507;51.046;6.406;2023-07-02T08:42:19;19.50;99.90
29575;DHT22;16507;51.046;6.406;2023-07-02T08:44:53;19.40;99.90
29575;DHT22;16507;51.046;6.406;2023-07-02T08:47:19;19.20;99.90
29575;DHT22;16507;51.046;6.406;2023-07-02T08:49:48;19.20;99.90
29575;DHT22;16507;51.046;6.406;2023-07-02T08:52:13;19.90;99.90
29575;DHT22;16507;51.046;6.406;2023-07-02T08:54:39;20.30;99.90
29575;DHT22;16507;51.046;6.406;2023-07-02T08:57:05;20.40;99.90
29575;DHT22;16507;51.046;6.406;2023-07-02T08:59:31;20.40;99.90
29575;DHT22;16507;51.046;6.406;2023-07-02T09:01:57;20.30;99.90
29575;DHT22;16507;51.046;6.406;2023-07-02T09:04:23;20.00;99.90
29575;DHT22;16507;51.046;6.406;2023-07-02T09:07:02;19.70;99.90
29575;DHT22;16507;51.046;6.406;2023-07-02T09:09:28;19.40;99.90
29575;DHT22;16507;51.046;6.406;2023-07-02T09:11:54;19.00;99.90
29575;DHT22;16507;51.046;6.406;2023-07-02T09:14:32;18.90;99.90
29575;DHT22;16507;51.046;6.406;2023-07-02T09:17:09;19.00;99.90
29575;DHT22;16507;51.046;6.406;2023-07-02T09:19:36;19.00;99.90
29575;DHT22;16507;51.046;6.406;2023-07-02T09:22:02;18.90;99.90
29575;DHT22;16507;51.046;6.406;2023-07-02T09:24:30;19.20;99.90
29575;DHT22;16507;51.046;6.406;2023-07-02T09:26:57;19.30;99.90
29575;DHT22;16507;51.046;6.406;2023-07-02T09:29:31;19.70;99.90
29575;DHT22;16507;51.046;6.406;2023-07-02T09:32:04;20.30;99.90
29575;DHT22;16507;51.046;6.406;2023-07-02T09:34:34;20.10;99.90
29575;DHT22;16507;51.046;6.406;2023-07-02T09:37:01;20.30;99.90
29575;DHT22;16507;51.046;6.406;2023-07-02T09:39:28;20.00;99.90
29575;DHT22;16507;51.046;6.406;2023-07-02T09:42:01;19.40;99.90
29575;DHT22;16507;51.046;6.406;2023-07-02T09:44:29;19.20;99.90
29575;DHT22;16507;51.046;6.406;2023-07-02T09:47:05;19.10;99.90
29575;DHT22;16507;51.046;6.406;2023-07-02T09:49:32;19.30;99.90
29575;DHT22;16507;51.046;6.406;2023-07-02T09:52:09;19.50;99.90
29575;DHT22;16507;51.046;6.406;2023-07-02T09:54:36;19.60;99.90
29575;DHT22;16507;51.046;6.406;2023-07-02T09:57:02;19.70;99.90
29575;DHT22;16507;51.046;6.406;2023-07-02T09:59:29;20.00;99.90
29575;DHT22;16507;51.046;6.406;2023-07-02T10:01:55;20.10;99.90
29575;DHT22;16507;51.046;6.406;2023-07-02T10:04:22;20.00;99.90
29575;DHT22;16507;51.046;6.406;2023-07-02T10:06:53;20.00;99.90
29575;DHT22;16507;51.046;6.406;2023-07-02T10:09:19;20.30;99.90
29575;DHT22;16507;51.046;6.406;2023-07-02T10:11:45;20.30;97.40
29575;DHT22;16507;51.046;6.406;2023-07-02T10:14:11;20.20;93.60
29575;DHT22;16507;51.046;6.406;2023-07-02T10:16:54;20.00;95.40
29575;DHT22;16507;51.046;6.406;2023-07-02T10:19:20;19.80;99.90
29575;DHT22;16507;51.046;6.406;2023-07-02T10:21:47;19.90;99.90
29575;DHT22;16507;51.046;6.406;2023-07-02T10:24:25;20.00;99.90
29575;DHT22;16507;51.046;6.406;2023-07-02T10:26:55;20.10;95.80
29575;DHT22;16507;51.046;6.406;2023-07-02T10:29:23;21.10;93.80
29575;DHT22;16507;51.046;6.406;2023-07-02T10:31:51;21.40;82.60
29575;DHT22;16507;51.046;6.406;2023-07-02T10:34:31;21.30;79.20
29575;DHT22;16507;51.046;6.406;2023-07-02T10:36:57;21.80;77.60
29575;DHT22;16507;51.046;6.406;2023-07-02T10:39:24;21.50;62.80
29575;DHT22;16507;51.046;6.406;2023-07-02T10:41:49;21.00;58.20
29575;DHT22;16507;51.046;6.406;2023-07-02T10:44:15;20.50;59.90
29575;DHT22;16507;51.046;6.406;2023-07-02T10:46:48;20.00;70.20
29575;DHT22;16507;51.046;6.406;2023-07-02T10:49:16;19.70;81.50
29575;DHT22;16507;51.046;6.406;2023-07-02T10:51:42;19.20;97.80
29575;DHT22;16507;51.046;6.406;2023-07-02T10:54:08;18.90;99.90
29575;DHT22;16507;51.046;6.406;2023-07-02T10:56:34;18.70;99.90
29575;DHT22;16507;51.046;6.406;2023-07-02T10:59:00;18.80;97.80
29575;DHT22;16507;51.046;6.406;2023-07-02T11:01:28;19.20;99.90
29575;DHT22;16507;51.046;6.406;2023-07-02T11:04:02;19.30;86.40
29575;DHT22;16507;51.046;6.406;2023-07-02T11:06:28;19.60;90.10
29575;DHT22;16507;51.046;6.406;2023-07-02T11:08:54;20.20;68.40
29575;DHT22;16507;51.046;6.406;2023-07-02T11:11:21;20.90;55.30
29575;DHT22;16507;51.046;6.406;2023-07-02T11:13:48;21.30;53.90
29575;DHT22;16507;51.046;6.406;2023-07-02T11:16:24;21.70;53.30
29575;DHT22;16507;51.046;6.406;2023-07-02T11:19:07;21.90;37.80
29575;DHT22;16507;51.046;6.406;2023-07-02T11:21:34;22.10;37.70
29575;DHT22;16507;51.046;6.406;2023-07-02T11:24:32;21.70;30.80
29575;DHT22;16507;51.046;6.406;2023-07-02T11:27:03;21.30;32.10
29575;DHT22;16507;51.046;6.406;2023-07-02T11:29:29;21.00;28.60
29575;DHT22;16507;51.046;6.406;2023-07-02T11:32:07;20.70;28.70
29575;DHT22;16507;51.046;6.406;2023-07-02T11:34:34;21.10;30.10
29575;DHT22;16507;51.046;6.406;2023-07-02T11:37:00;21.50;29.40
29575;DHT22;16507;51.046;6.406;2023-07-02T11:39:26;21.50;23.50
29575;DHT22;16507;51.046;6.406;2023-07-02T11:41:52;21.90;23.10
29575;DHT22;16507;51.046;6.406;2023-07-02T11:44:18;22.00;20.80
29575;DHT22;16507;51.046;6.406;2023-07-02T11:46:44;21.50;19.20
29575;DHT22;16507;51.046;6.406;2023-07-02T11:49:10;21.20;25.10
29575;DHT22;16507;51.046;6.406;2023-07-02T11:51:42;21.20;26.00
29575;DHT22;16507;51.046;6.406;2023-07-02T11:54:14;21.30;25.70
29575;DHT22;16507;51.046;6.406;2023-07-02T11:56:39;21.30;26.20
29575;DHT22;16507;51.046;6.406;2023-07-02T11:59:07;21.30;23.70
29575;DHT22;16507;51.046;6.406;2023-07-02T12:01:33;21.20;23.00
29575;DHT22;16507;51.046;6.406;2023-07-02T12:03:58;21.10;25.30
29575;DHT22;16507;51.046;6.406;2023-07-02T12:06:24;21.20;22.60
29575;DHT22;16507;51.046;6.406;2023-07-02T12:08:49;21.20;25.30
29575;DHT22;16507;51.046;6.406;2023-07-02T12:11:15;21.60;28.60
29575;DHT22;16507;51.046;6.406;2023-07-02T12:13:41;22.10;24.20
29575;DHT22;16507;51.046;6.406;2023-07-02T12:16:07;22.40;26.50
29575;DHT22;16507;51.046;6.406;2023-07-02T12:18:32;22.70;24.60
29575;DHT22;16507;51.046;6.406;2023-07-02T12:20:59;22.90;25.90
29575;DHT22;16507;51.046;6.406;2023-07-02T12:23:24;23.20;22.70
29575;DHT22;16507;51.046;6.406;2023-07-02T12:25:50;23.40;21.00
29575;DHT22;16507;51.046;6.406;2023-07-02T12:28:15;23.30;24.20
29575;DHT22;16507;51.046;6.406;2023-07-02T12:30:41;22.90;23.50
29575;DHT22;16507;51.046;6.406;2023-07-02T12:33:07;23.30;26.70
29575;DHT22;16507;51.046;6.406;2023-07-02T12:35:32;23.20;22.30
29575;DHT22;16507;51.046;6.406;2023-07-02T12:37:58;23.80;24.60
29575;DHT22;16507;51.046;6.406;2023-07-02T12:40:23;24.20;18.80
29575;DHT22;16507;51.046;6.406;2023-07-02T12:42:49;23.30;19.50
29575;DHT22;16507;51.046;6.406;2023-07-02T12:45:15;23.60;21.50
29575;DHT22;16507;51.046;6.406;2023-07-02T12:47:42;23.30;20.90
29575;DHT22;16507;51.046;6.406;2023-07-02T12:50:09;23.10;22.20
29575;DHT22;16507;51.046;6.406;2023-07-02T12:52:35;23.40;23.40
29575;DHT22;16507;51.046;6.406;2023-07-02T12:55:01;23.70;22.00
29575;DHT22;16507;51.046;6.406;2023-07-02T12:57:27;24.00;19.20
29575;DHT22;16507;51.046;6.406;2023-07-02T12:59:56;22.90;21.40
29575;DHT22;16507;51.046;6.406;2023-07-02T13:02:22;22.50;23.30
29575;DHT22;16507;51.046;6.406;2023-07-02T13:04:49;21.90;26.50
29575;DHT22;16507;51.046;6.406;2023-07-02T13:07:15;21.80;28.90
29575;DHT22;16507;51.046;6.406;2023-07-02T13:09:41;21.80;27.00
29575;DHT22;16507;51.046;6.406;2023-07-02T13:12:07;22.10;31.00
29575;DHT22;16507;51.046;6.406;2023-07-02T13:14:34;22.40;27.90
29575;DHT22;16507;51.046;6.406;2023-07-02T13:17:00;22.60;25.90
29575;DHT22;16507;51.046;6.406;2023-07-02T13:19:26;23.00;26.40
29575;DHT22;16507;51.046;6.406;2023-07-02T13:21:51;23.40;25.90
29575;DHT22;16507;51.046;6.406;2023-07-02T13:24:17;25.00;21.90
29575;DHT22;16507;51.046;6.406;2023-07-02T13:26:43;24.20;23.80
29575;DHT22;16507;51.046;6.406;2023-07-02T13:29:08;23.80;26.10
29575;DHT22;16507;51.046;6.406;2023-07-02T13:31:34;24.20;24.10
29575;DHT22;16507;51.046;6.406;2023-07-02T13:34:00;24.60;21.30
29575;DHT22;16507;51.046;6.406;2023-07-02T13:36:25;24.30;24.20
29575;DHT22;16507;51.046;6.406;2023-07-02T13:38:54;25.00;19.40
29575;DHT22;16507;51.046;6.406;2023-07-02T13:41:19;24.50;15.30
29575;DHT22;16507;51.046;6.406;2023-07-02T13:43:45;24.60;14.70
29575;DHT22;16507;51.046;6.406;2023-07-02T13:46:10;24.30;15.00
29575;DHT22;16507;51.046;6.406;2023-07-02T13:48:36;24.40;15.40
29575;DHT22;16507;51.046;6.406;2023-07-02T13:51:01;24.70;17.60
29575;DHT22;16507;51.046;6.406;2023-07-02T13:53:27;24.90;14.90
29575;DHT22;16507;51.046;6.406;2023-07-02T13:55:53;25.20;15.60
29575;DHT22;16507;51.046;6.406;2023-07-02T13:58:18;24.60;15.10
29575;DHT22;16507;51.046;6.406;2023-07-02T14:00:44;24.20;14.40
29575;DHT22;16507;51.046;6.406;2023-07-02T14:03:09;22.90;16.90
29575;DHT22;16507;51.046;6.406;2023-07-02T14:05:35;22.80;19.70
29575;DHT22;16507;51.046;6.406;2023-07-02T14:08:01;23.40;18.90
29575;DHT22;16507;51.046;6.406;2023-07-02T14:10:26;23.80;18.50
29575;DHT22;16507;51.046;6.406;2023-07-02T14:12:53;24.00;17.80
29575;DHT22;16507;51.046;6.406;2023-07-02T14:15:19;24.70;18.10
29575;DHT22;16507;51.046;6.406;2023-07-02T14:17:45;24.80;16.20
29575;DHT22;16507;51.046;6.406;2023-07-02T14:20:11;24.90;15.00
29575;DHT22;16507;51.046;6.406;2023-07-02T14:22:37;25.00;15.50
29575;DHT22;16507;51.046;6.406;2023-07-02T14:25:03;24.40;15.50
29575;DHT22;16507;51.046;6.406;2023-07-02T14:27:29;23.40;15.40
29575;DHT22;16507;51.046;6.406;2023-07-02T14:29:54;22.80;16.80
29575;DHT22;16507;51.046;6.406;2023-07-02T14:32:20;22.30;19.80
29575;DHT22;16507;51.046;6.406;2023-07-02T14:34:45;22.00;20.70
29575;DHT22;16507;51.046;6.406;2023-07-02T14:37:11;22.10;22.10
29575;DHT22;16507;51.046;6.406;2023-07-02T14:39:37;22.30;22.00
29575;DHT22;16507;51.046;6.406;2023-07-02T14:42:02;22.70;22.30
29575;DHT22;16507;51.046;6.406;2023-07-02T14:44:28;23.40;21.70
29575;DHT22;16507;51.046;6.406;2023-07-02T14:46:54;23.80;19.20
29575;DHT22;16507;51.046;6.406;2023-07-02T14:49:20;24.20;17.00
29575;DHT22;16507;51.046;6.406;2023-07-02T14:51:46;23.80;18.20
29575;DHT22;16507;51.046;6.406;2023-07-02T14:54:12;23.70;15.10
29575;DHT22;16507;51.046;6.406;2023-07-02T14:56:37;23.20;16.10
29575;DHT22;16507;51.046;6.406;2023-07-02T14:59:03;23.30;17.80
29575;DHT22;16507;51.046;6.406;2023-07-02T15:01:30;23.90;19.90
29575;DHT22;16507;51.046;6.406;2023-07-02T15:03:55;23.60;17.00
29575;DHT22;16507;51.046;6.406;2023-07-02T15:06:21;22.90;17.40
29575;DHT22;16507;51.046;6.406;2023-07-02T15:08:47;22.50;19.90
29575;DHT22;16507;51.046;6.406;2023-07-02T15:11:14;22.40;21.40
29575;DHT22;16507;51.046;6.406;2023-07-02T15:13:40;22.50;19.10
29575;DHT22;16507;51.046;6.406;2023-07-02T15:16:07;22.80;19.60
29575;DHT22;16507;51.046;6.406;2023-07-02T15:18:32;23.90;19.10
29575;DHT22;16507;51.046;6.406;2023-07-02T15:20:58;23.80;17.20
29575;DHT22;16507;51.046;6.406;2023-07-02T15:23:25;23.30;19.70
29575;DHT22;16507;51.046;6.406;2023-07-02T15:28:18;22.80;21.50
29575;DHT22;16507;51.046;6.406;2023-07-02T15:30:45;22.80;22.60
29575;DHT22;16507;51.046;6.406;2023-07-02T15:33:10;23.50;22.00
29575;DHT22;16507;51.046;6.406;2023-07-02T15:35:36;23.30;20.40